Time;durP1;ratioP1;P1;durP2;ratioP2;P2;SDS_P1;SDS_P2;PMS_P1;PMS_P2;Temp;Humidity;BMP_temperature;BMP_pressure;BME280_temperature;BME280_humidity;BME280_pressure;Samples;Min_cycle;Max_cycle;Signal;HPM_P1;HPM_P2
2022/02/20 00:00:32;;;;;;;1.38;0.13;;;21.30;41.60;;;;;;5067154;28;20049;-57
2022/02/20 00:03:00;;;;;;;1.38;0.20;;;21.30;41.70;;;;;;5047764;28;20118;-56
2022/02/20 00:05:28;;;;;;;0.38;0.10;;;21.30;41.70;;;;;;5066000;28;20056;-57
2022/02/20 00:07:55;;;;;;;0.50;0.00;;;21.20;41.80;;;;;;5065808;28;20117;-57
2022/02/20 00:10:23;;;;;;;1.38;0.10;;;21.20;41.80;;;;;;5047773;28;20516;-57
2022/02/20 00:12:52;;;;;;;0.20;0.10;;;21.30;41.90;;;;;;5066145;28;20066;-54
2022/02/20 00:15:20;;;;;;;0.20;0.10;;;21.20;41.80;;;;;;5067339;28;20058;-55
2022/02/20 00:17:50;;;;;;;0.10;0.00;;;21.20;41.80;;;;;;5065052;28;20445;-57
2022/02/20 00:20:18;;;;;;;0.20;0.00;;;21.20;41.80;;;;;;5066060;28;20048;-58
2022/02/20 00:22:46;;;;;;;1.20;0.10;;;21.20;41.90;;;;;;5047453;28;20146;-56
2022/02/20 00:25:13;;;;;;;0.38;0.00;;;21.20;41.80;;;;;;5065641;28;20037;-57
2022/02/20 00:27:42;;;;;;;0.38;0.10;;;21.20;41.90;;;;;;5067512;28;20477;-57
2022/02/20 00:30:10;;;;;;;0.90;0.30;;;21.20;42.00;;;;;;5066099;28;20046;-58
2022/02/20 00:32:37;;;;;;;3.00;0.32;;;21.20;42.00;;;;;;5065084;28;20132;-59
2022/02/20 00:35:05;;;;;;;0.40;0.00;;;21.20;42.00;;;;;;5047140;28;20421;-56
2022/02/20 00:37:32;;;;;;;0.90;0.00;;;21.20;42.00;;;;;;5065723;28;20114;-58
2022/02/20 00:40:00;;;;;;;0.75;0.10;;;21.20;42.00;;;;;;5065338;28;20040;-58
2022/02/20 00:42:27;;;;;;;1.30;0.10;;;21.20;42.00;;;;;;5067319;28;20041;-60
2022/02/20 00:44:56;;;;;;;0.57;0.17;;;21.10;42.00;;;;;;5047484;28;20059;-56
2022/02/20 00:47:23;;;;;;;0.60;0.10;;;21.10;42.00;;;;;;5064835;28;20044;-58
2022/02/20 00:49:50;;;;;;;2.08;0.30;;;21.10;42.00;;;;;;5047230;28;20139;-58
2022/02/20 00:52:18;;;;;;;1.20;0.00;;;21.10;42.00;;;;;;5061192;28;20068;-58
2022/02/20 00:54:45;;;;;;;0.88;0.10;;;21.10;42.00;;;;;;5066079;28;20070;-58
2022/02/20 00:57:12;;;;;;;2.38;0.05;;;21.20;42.10;;;;;;5048809;28;20496;-57
2022/02/20 00:59:39;;;;;;;0.20;0.10;;;21.10;42.10;;;;;;5047525;28;21180;-62
2022/02/20 01:02:08;;;;;;;3.42;0.10;;;21.10;42.10;;;;;;5064795;28;20504;-58
2022/02/20 01:04:35;;;;;;;0.10;0.00;;;21.10;42.10;;;;;;5065654;28;20041;-59
2022/02/20 01:07:03;;;;;;;0.50;0.00;;;21.10;42.10;;;;;;5047582;28;20052;-60
2022/02/20 01:09:30;;;;;;;0.60;0.20;;;21.10;42.20;;;;;;5066865;28;20143;-58
2022/02/20 01:12:00;;;;;;;0.70;0.10;;;21.10;42.10;;;;;;5047936;28;20080;-59
2022/02/20 01:14:27;;;;;;;2.70;0.10;;;21.10;42.20;;;;;;5047515;28;20047;-59
2022/02/20 01:16:54;;;;;;;1.25;0.10;;;21.10;42.20;;;;;;5047053;28;20036;-57
2022/02/20 01:19:23;;;;;;;0.28;0.10;;;21.10;42.30;;;;;;5061430;28;20044;-56
2022/02/20 01:21:51;;;;;;;0.52;0.10;;;21.10;42.50;;;;;;5047819;28;20141;-58
2022/02/20 01:24:18;;;;;;;2.22;0.00;;;21.10;42.40;;;;;;5066822;28;20079;-58
2022/02/20 01:26:45;;;;;;;1.58;0.10;;;21.10;42.50;;;;;;5065727;28;20079;-55
2022/02/20 01:29:12;;;;;;;0.35;0.10;;;21.10;42.50;;;;;;5046988;28;20135;-58
2022/02/20 01:31:39;;;;;;;0.13;0.05;;;21.10;42.60;;;;;;5047355;28;20152;-58
2022/02/20 01:34:06;;;;;;;0.47;0.17;;;21.10;42.70;;;;;;5065581;28;20051;-58
2022/02/20 01:36:35;;;;;;;1.55;0.10;;;21.10;42.80;;;;;;5067219;28;20486;-57
2022/02/20 01:39:04;;;;;;;0.82;0.10;;;21.10;42.90;;;;;;5046275;28;20052;-57
2022/02/20 01:41:32;;;;;;;1.23;0.20;;;21.10;43.00;;;;;;5064950;28;20044;-59
2022/02/20 01:44:00;;;;;;;1.52;0.60;;;21.10;43.00;;;;;;5047371;28;20052;-58
2022/02/20 01:46:28;;;;;;;0.22;0.00;;;21.10;43.10;;;;;;5048313;28;20474;-60
2022/02/20 01:48:55;;;;;;;1.33;0.10;;;21.10;43.20;;;;;;5051116;28;20425;-57
2022/02/20 01:51:22;;;;;;;4.25;0.13;;;21.10;43.30;;;;;;5069130;28;20054;-58
2022/02/20 01:53:52;;;;;;;1.13;0.10;;;21.10;43.40;;;;;;5068824;28;20102;-57
2022/02/20 01:56:21;;;;;;;1.83;0.10;;;21.10;43.50;;;;;;5048263;28;20048;-57
2022/02/20 01:59:07;;;;;;;0.63;0.10;;;21.10;43.60;;;;;;5068218;28;20041;-58
2022/02/20 02:01:57;;;;;;;0.25;0.10;;;21.10;43.70;;;;;;5061121;28;20087;-59
2022/02/20 02:04:32;;;;;;;0.20;0.05;;;21.10;43.70;;;;;;5051064;28;20156;-60
2022/02/20 02:07:05;;;;;;;1.30;0.10;;;21.10;43.70;;;;;;5069110;28;20745;-59
2022/02/20 02:09:51;;;;;;;0.55;0.10;;;21.10;43.80;;;;;;5068770;28;20257;-58
2022/02/20 02:12:39;;;;;;;2.47;0.20;;;21.10;43.80;;;;;;5047792;28;20477;-59
2022/02/20 02:15:11;;;;;;;0.70;0.57;;;21.10;43.80;;;;;;5069168;28;20123;-60
2022/02/20 02:17:56;;;;;;;0.30;0.00;;;21.10;43.80;;;;;;5068441;28;20078;-59
2022/02/20 02:20:32;;;;;;;1.20;0.10;;;21.10;43.80;;;;;;5069039;28;20715;-57
2022/02/20 02:23:05;;;;;;;0.63;0.30;;;21.00;43.80;;;;;;5068496;28;20032;-55
2022/02/20 02:25:55;;;;;;;2.72;0.10;;;21.10;43.90;;;;;;5068138;28;20064;-56
2022/02/20 02:28:43;;;;;;;0.47;0.10;;;21.00;43.80;;;;;;5050203;28;20094;-56
2022/02/20 02:31:16;;;;;;;1.75;0.10;;;21.00;43.80;;;;;;5068145;28;20048;-57
2022/02/20 02:33:46;;;;;;;0.70;0.38;;;21.00;43.90;;;;;;5050767;28;20043;-58
2022/02/20 02:36:14;;;;;;;1.17;0.00;;;21.00;43.80;;;;;;5052004;28;20045;-57
2022/02/20 02:38:42;;;;;;;2.63;0.25;;;21.10;43.90;;;;;;5050082;28;20041;-59
2022/02/20 02:41:13;;;;;;;0.85;0.10;;;21.00;43.80;;;;;;5049814;28;20150;-56
2022/02/20 02:43:44;;;;;;;2.15;0.20;;;21.00;43.80;;;;;;5049063;28;20036;-56
2022/02/20 02:46:11;;;;;;;1.27;0.10;;;21.00;43.70;;;;;;5048256;28;20058;-54
2022/02/20 02:48:45;;;;;;;0.57;0.10;;;21.00;43.70;;;;;;5051108;28;20040;-55
2022/02/20 02:51:14;;;;;;;1.30;0.10;;;21.10;43.80;;;;;;5045110;28;20122;-56
2022/02/20 02:53:42;;;;;;;1.00;0.10;;;21.00;43.70;;;;;;5048689;28;20067;-54
2022/02/20 02:56:09;;;;;;;2.13;0.10;;;21.00;43.70;;;;;;5066847;28;20842;-55
2022/02/20 02:58:36;;;;;;;0.32;0.10;;;21.00;43.70;;;;;;5048771;28;20040;-55
2022/02/20 03:01:08;;;;;;;1.23;0.10;;;21.00;43.60;;;;;;5048775;28;20057;-56
2022/02/20 03:03:35;;;;;;;1.17;0.10;;;21.00;43.70;;;;;;5051158;28;20040;-57
2022/02/20 03:06:08;;;;;;;1.85;0.10;;;21.00;43.70;;;;;;5049397;28;20150;-58
2022/02/20 03:08:35;;;;;;;0.52;0.35;;;21.00;43.70;;;;;;5049151;28;20558;-58
2022/02/20 03:11:06;;;;;;;2.58;0.20;;;21.00;43.70;;;;;;5042123;28;20072;-58
2022/02/20 03:13:35;;;;;;;0.47;0.10;;;21.00;43.80;;;;;;5042793;28;20032;-57
2022/02/20 03:16:07;;;;;;;5.78;0.30;;;21.00;43.80;;;;;;5064994;28;20040;-58
2022/02/20 03:18:34;;;;;;;8.98;0.40;;;21.00;44.10;;;;;;5067207;28;20537;-57
2022/02/20 03:21:04;;;;;;;5.70;0.28;;;21.00;44.30;;;;;;5064812;28;20461;-59
2022/02/20 03:23:31;;;;;;;3.10;0.25;;;21.00;44.40;;;;;;5049003;28;20045;-59
2022/02/20 03:26:01;;;;;;;8.88;1.85;;;21.00;44.50;;;;;;5048618;28;20033;-60
2022/02/20 03:28:33;;;;;;;3.47;0.28;;;21.00;44.50;;;;;;5048521;28;20777;-60
2022/02/20 03:31:04;;;;;;;1.55;0.10;;;21.00;44.50;;;;;;5031670;28;20110;-59
2022/02/20 03:33:31;;;;;;;2.30;0.10;;;21.00;44.50;;;;;;5050043;28;20172;-59
2022/02/20 03:36:01;;;;;;;5.45;0.25;;;21.00;44.50;;;;;;5048551;28;20040;-57
2022/02/20 03:38:29;;;;;;;0.70;0.10;;;21.00;44.50;;;;;;5048357;28;20063;-59
2022/02/20 03:40:57;;;;;;;2.80;0.38;;;21.00;44.40;;;;;;5047511;28;20426;-58
2022/02/20 03:43:33;;;;;;;1.42;0.10;;;21.00;44.40;;;;;;5048577;28;20047;-55
2022/02/20 03:46:03;;;;;;;0.85;0.10;;;21.00;44.40;;;;;;5047416;28;20045;-56
2022/02/20 03:48:33;;;;;;;0.98;0.10;;;21.00;44.40;;;;;;5050022;28;20518;-59
2022/02/20 03:51:10;;;;;;;3.13;0.40;;;21.00;44.40;;;;;;5048157;28;20053;-57
2022/02/20 03:53:38;;;;;;;7.50;0.73;;;21.00;44.30;;;;;;5065859;28;20119;-58
2022/02/20 03:56:09;;;;;;;6.38;0.32;;;21.00;44.30;;;;;;5048058;28;20049;-58
2022/02/20 03:58:42;;;;;;;6.25;0.82;;;21.00;44.40;;;;;;5048177;28;20032;-56
2022/02/20 04:01:09;;;;;;;3.75;0.15;;;20.90;44.30;;;;;;5047877;28;20056;-59
2022/02/20 04:03:42;;;;;;;2.83;0.20;;;21.00;44.30;;;;;;5049456;28;20044;-56
2022/02/20 04:06:09;;;;;;;1.08;0.10;;;20.90;44.30;;;;;;5065541;28;20421;-59
2022/02/20 04:08:42;;;;;;;2.65;0.30;;;20.90;44.30;;;;;;5046236;28;20044;-57
2022/02/20 04:11:10;;;;;;;3.20;0.25;;;21.00;44.30;;;;;;5046973;28;20118;-57
2022/02/20 04:13:51;;;;;;;3.38;0.50;;;20.90;44.30;;;;;;5042602;28;20132;-57
2022/02/20 04:16:24;;;;;;;1.85;0.30;;;20.90;44.30;;;;;;5047706;28;20467;-58
2022/02/20 04:18:54;;;;;;;3.45;0.20;;;20.90;44.30;;;;;;5048135;28;20048;-59
2022/02/20 04:21:28;;;;;;;2.03;0.52;;;20.90;44.30;;;;;;5048392;28;20036;-56
2022/02/20 04:24:03;;;;;;;0.90;0.10;;;20.90;44.30;;;;;;5047537;28;20425;-58
2022/02/20 04:26:30;;;;;;;5.00;0.17;;;20.90;44.30;;;;;;5047457;28;20060;-58
2022/02/20 04:28:59;;;;;;;2.35;0.20;;;20.90;44.30;;;;;;5047377;28;20033;-57
2022/02/20 04:31:26;;;;;;;0.90;0.40;;;20.90;44.30;;;;;;5065484;28;20580;-58
2022/02/20 04:33:58;;;;;;;0.65;0.20;;;20.90;44.30;;;;;;5047510;28;20529;-58
2022/02/20 04:36:26;;;;;;;3.35;0.25;;;20.90;44.30;;;;;;5049525;28;20040;-59
2022/02/20 04:38:57;;;;;;;1.92;0.70;;;20.90;44.30;;;;;;5047135;28;20039;-57
2022/02/20 04:41:26;;;;;;;0.80;0.20;;;20.90;44.30;;;;;;5047447;28;20037;-58
2022/02/20 04:43:54;;;;;;;3.33;0.43;;;20.90;44.30;;;;;;5047416;28;20447;-55
2022/02/20 04:46:23;;;;;;;3.80;0.25;;;20.90;44.20;;;;;;5047360;28;20037;-57
2022/02/20 04:48:51;;;;;;;0.65;0.10;;;20.90;44.20;;;;;;5047832;28;20123;-57
2022/02/20 04:51:38;;;;;;;4.90;0.20;;;20.90;44.20;;;;;;5063939;28;20061;-58
2022/02/20 04:54:06;;;;;;;0.85;0.20;;;20.80;44.20;;;;;;5046928;28;20392;-59
2022/02/20 04:56:34;;;;;;;5.15;0.43;;;20.80;44.20;;;;;;5065433;28;20071;-60
2022/02/20 04:59:02;;;;;;;2.35;0.20;;;20.90;44.30;;;;;;5047159;28;20048;-57
2022/02/20 05:01:45;;;;;;;3.75;0.40;;;20.90;44.30;;;;;;5047251;28;20436;-58
2022/02/20 05:04:21;;;;;;;2.25;0.20;;;20.80;44.30;;;;;;5044797;28;20036;-58
2022/02/20 05:06:51;;;;;;;4.05;0.30;;;20.80;44.30;;;;;;5065421;28;20064;-56
2022/02/20 05:09:24;;;;;;;0.85;0.30;;;20.80;44.30;;;;;;5065404;28;20067;-58
2022/02/20 05:11:57;;;;;;;1.67;0.20;;;20.80;44.40;;;;;;5065116;28;20432;-57
2022/02/20 05:14:25;;;;;;;0.55;0.10;;;20.80;44.30;;;;;;5046996;28;20032;-58
2022/02/20 05:16:55;;;;;;;1.58;0.10;;;20.80;44.30;;;;;;5047425;28;20037;-58
2022/02/20 05:19:34;;;;;;;1.73;0.20;;;20.80;44.40;;;;;;5040897;28;20048;-57
2022/02/20 05:22:02;;;;;;;0.40;0.10;;;20.80;44.40;;;;;;5049007;28;20083;-57
2022/02/20 05:24:38;;;;;;;0.90;0.25;;;20.80;44.40;;;;;;5053240;28;20131;-56
2022/02/20 05:27:05;;;;;;;1.42;0.20;;;20.80;44.40;;;;;;5068580;28;20052;-55
2022/02/20 05:29:38;;;;;;;4.93;0.10;;;20.80;44.40;;;;;;5068462;28;20616;-58
2022/02/20 05:32:09;;;;;;;1.65;0.10;;;20.80;44.40;;;;;;5050434;28;20460;-57
2022/02/20 05:34:57;;;;;;;1.17;0.20;;;20.80;44.40;;;;;;5050613;28;20045;-58
2022/02/20 05:37:26;;;;;;;2.75;0.20;;;20.80;44.40;;;;;;5050471;28;20119;-57
2022/02/20 05:39:53;;;;;;;1.55;0.45;;;20.80;44.40;;;;;;5069001;28;20041;-58
2022/02/20 05:42:21;;;;;;;2.72;0.15;;;20.80;44.30;;;;;;5051761;28;20075;-57
2022/02/20 05:44:58;;;;;;;1.88;0.10;;;20.80;44.30;;;;;;5050394;28;20036;-58
2022/02/20 05:47:27;;;;;;;2.40;0.32;;;20.80;44.30;;;;;;5050186;28;20032;-59
2022/02/20 05:49:54;;;;;;;2.78;0.47;;;20.80;44.30;;;;;;5068296;28;20116;-58
2022/02/20 05:52:21;;;;;;;1.73;0.47;;;20.80;44.30;;;;;;5047445;28;20060;-57
2022/02/20 05:54:49;;;;;;;1.85;0.32;;;20.80;44.30;;;;;;5051027;28;20129;-56
2022/02/20 05:57:17;;;;;;;1.65;0.10;;;20.80;44.30;;;;;;5067812;28;20041;-58
2022/02/20 05:59:59;;;;;;;2.92;0.30;;;20.80;44.30;;;;;;5050382;28;20083;-59
2022/02/20 06:02:28;;;;;;;1.65;0.17;;;20.80;44.70;;;;;;5049988;28;20098;-57
2022/02/20 06:04:58;;;;;;;2.45;0.35;;;20.80;44.30;;;;;;5050194;28;20076;-58
2022/02/20 06:07:41;;;;;;;3.60;0.13;;;20.80;44.30;;;;;;5068131;28;20132;-57
2022/02/20 06:10:28;;;;;;;0.90;0.10;;;20.80;44.30;;;;;;5066731;28;20070;-58
2022/02/20 06:13:04;;;;;;;2.40;0.20;;;20.70;44.30;;;;;;5050097;28;20068;-57
2022/02/20 06:15:57;;;;;;;2.72;1.10;;;20.70;44.30;;;;;;5048886;28;20055;-58
2022/02/20 06:18:55;;;;;;;0.63;0.10;;;20.70;44.30;;;;;;5065899;28;20053;-57
2022/02/20 06:21:51;;;;;;;4.63;0.40;;;20.70;44.40;;;;;;5056274;28;20132;-57
2022/02/20 06:24:51;;;;;;;1.90;0.22;;;20.70;44.40;;;;;;5023136;28;20061;-57
2022/02/20 06:27:36;;;;;;;0.90;0.10;;;20.70;44.40;;;;;;5027114;28;20056;-58
2022/02/20 06:30:04;;;;;;;2.60;0.65;;;20.70;44.40;;;;;;5008819;28;20049;-58
2022/02/20 06:32:32;;;;;;;1.48;0.10;;;20.70;44.30;;;;;;5007489;28;20139;-58
2022/02/20 06:35:01;;;;;;;3.67;0.40;;;20.70;44.40;;;;;;5005357;28;20041;-59
2022/02/20 06:37:29;;;;;;;3.33;0.30;;;20.80;44.40;;;;;;5025204;28;20137;-57
2022/02/20 06:39:57;;;;;;;0.95;0.20;;;20.70;44.30;;;;;;5009035;28;20076;-59
2022/02/20 06:42:24;;;;;;;3.28;0.30;;;20.70;44.30;;;;;;5024803;28;20532;-58
2022/02/20 06:44:53;;;;;;;2.38;0.10;;;20.70;44.30;;;;;;5003923;28;20034;-57
2022/02/20 06:47:49;;;;;;;0.20;0.20;;;20.80;44.30;;;;;;4989314;28;20565;-56
2022/02/20 06:50:37;;;;;;;2.60;0.20;;;20.70;44.30;;;;;;4985610;28;20047;-58
2022/02/20 06:53:19;;;;;;;0.65;0.10;;;20.70;44.30;;;;;;4953547;28;20055;-58
2022/02/20 06:56:00;;;;;;;1.20;0.10;;;20.70;44.30;;;;;;4965304;28;20042;-55
2022/02/20 06:58:27;;;;;;;1.25;0.25;;;20.70;44.30;;;;;;4987980;28;20108;-58
2022/02/20 07:00:55;;;;;;;3.05;0.20;;;20.70;44.30;;;;;;4986189;28;20054;-56
2022/02/20 07:03:22;;;;;;;1.85;0.10;;;20.70;44.30;;;;;;4988398;28;20141;-58
2022/02/20 07:05:50;;;;;;;1.08;0.25;;;20.70;44.30;;;;;;4984895;28;20096;-56
2022/02/20 07:08:18;;;;;;;1.95;0.52;;;20.70;44.30;;;;;;4981681;28;20570;-58
2022/02/20 07:10:45;;;;;;;3.33;0.40;;;20.70;44.20;;;;;;4979543;28;20061;-56
2022/02/20 07:13:13;;;;;;;1.02;0.70;;;20.80;44.30;;;;;;4981329;28;20072;-56
2022/02/20 07:15:40;;;;;;;4.10;0.40;;;20.70;44.20;;;;;;4970866;28;20048;-57
2022/02/20 07:18:08;;;;;;;2.35;0.30;;;20.70;44.20;;;;;;4985543;28;20138;-53
2022/02/20 07:20:35;;;;;;;1.05;0.10;;;20.70;44.20;;;;;;4985634;28;20503;-58
2022/02/20 07:23:04;;;;;;;2.25;0.13;;;20.80;44.30;;;;;;4987662;28;20153;-58
2022/02/20 07:25:31;;;;;;;4.07;0.82;;;20.80;44.30;;;;;;5064271;28;20497;-58
2022/02/20 07:27:58;;;;;;;2.28;0.20;;;20.70;44.30;;;;;;5066579;28;20592;-56
2022/02/20 07:30:28;;;;;;;3.00;0.38;;;20.80;44.30;;;;;;5050353;28;20370;-57
2022/02/20 07:32:55;;;;;;;0.85;0.10;;;20.80;44.30;;;;;;5065598;28;20122;-56
2022/02/20 07:35:22;;;;;;;0.93;0.30;;;20.80;44.30;;;;;;5048362;28;20032;-57
2022/02/20 07:37:49;;;;;;;2.97;0.10;;;20.80;44.30;;;;;;5066490;28;20049;-58
2022/02/20 07:40:18;;;;;;;0.88;0.17;;;20.80;44.30;;;;;;5066007;28;20142;-57
2022/02/20 07:42:45;;;;;;;2.13;0.30;;;20.80;44.30;;;;;;5067300;28;20118;-56
2022/02/20 07:45:13;;;;;;;1.35;0.10;;;20.80;44.30;;;;;;5049225;28;20051;-57
2022/02/20 07:47:51;;;;;;;2.85;0.20;;;20.80;44.30;;;;;;5065400;28;20051;-58
2022/02/20 07:50:18;;;;;;;2.05;0.20;;;20.80;44.30;;;;;;5058993;28;20036;-59
2022/02/20 07:52:46;;;;;;;4.30;0.30;;;20.80;44.90;;;;;;5059611;28;20453;-58
2022/02/20 07:55:14;;;;;;;2.25;0.50;;;20.80;44.30;;;;;;5059798;28;20463;-57
2022/02/20 07:57:43;;;;;;;0.50;0.20;;;20.80;44.30;;;;;;5064175;28;20496;-58
2022/02/20 08:00:11;;;;;;;1.45;0.80;;;20.80;44.30;;;;;;5066887;28;20052;-58
2022/02/20 08:02:42;;;;;;;2.15;0.15;;;20.80;44.30;;;;;;5061788;28;20131;-58
2022/02/20 08:05:10;;;;;;;1.55;0.10;;;20.80;44.30;;;;;;5065517;28;20044;-57
2022/02/20 08:07:38;;;;;;;5.55;0.35;;;20.80;44.30;;;;;;5065560;28;20036;-61
2022/02/20 08:10:06;;;;;;;1.10;0.20;;;20.80;44.30;;;;;;5047953;28;20052;-59
2022/02/20 08:12:34;;;;;;;2.40;0.17;;;20.80;44.30;;;;;;5067045;28;20052;-60
2022/02/20 08:15:03;;;;;;;0.32;0.10;;;20.80;44.30;;;;;;5063998;28;20036;-57
2022/02/20 08:17:50;;;;;;;0.80;0.10;;;20.80;44.20;;;;;;5063393;28;20063;-58
2022/02/20 08:20:18;;;;;;;2.92;0.85;;;20.80;44.20;;;;;;5065314;28;20036;-58
2022/02/20 08:22:46;;;;;;;3.55;0.20;;;20.80;44.20;;;;;;5065842;28;20032;-55
2022/02/20 08:25:15;;;;;;;0.63;0.10;;;20.90;44.30;;;;;;5062413;28;20044;-57
2022/02/20 08:27:43;;;;;;;1.73;0.25;;;20.90;44.30;;;;;;5067678;28;20044;-54
2022/02/20 08:30:13;;;;;;;2.92;0.40;;;20.90;44.30;;;;;;5064637;28;20048;-57
2022/02/20 08:32:40;;;;;;;2.20;0.22;;;20.90;44.20;;;;;;5065171;28;20052;-58
2022/02/20 08:35:10;;;;;;;3.67;0.10;;;20.90;44.20;;;;;;5065121;28;20040;-57
2022/02/20 08:37:40;;;;;;;3.13;0.20;;;20.90;44.20;;;;;;5065221;28;20124;-58
2022/02/20 08:40:08;;;;;;;1.75;0.22;;;20.90;44.20;;;;;;5065604;28;20476;-58
2022/02/20 08:42:35;;;;;;;2.38;0.30;;;20.90;44.20;;;;;;5049340;28;20048;-59
2022/02/20 08:45:03;;;;;;;1.48;0.20;;;20.90;44.10;;;;;;5064837;28;20117;-57
2022/02/20 08:47:32;;;;;;;1.50;0.50;;;20.90;44.10;;;;;;5065102;28;20052;-57
2022/02/20 08:50:00;;;;;;;2.83;0.20;;;21.00;44.20;;;;;;5061997;28;20036;-60
2022/02/20 08:52:28;;;;;;;2.42;0.20;;;21.00;44.20;;;;;;5058493;28;20040;-59
2022/02/20 08:54:55;;;;;;;1.33;0.13;;;21.00;44.20;;;;;;5043908;28;20543;-60
2022/02/20 08:57:22;;;;;;;6.30;0.22;;;21.00;45.00;;;;;;5067663;28;20116;-59
2022/02/20 08:59:50;;;;;;;5.07;0.30;;;21.00;44.50;;;;;;5065867;28;20036;-59
2022/02/20 09:02:17;;;;;;;4.32;0.32;;;21.00;44.60;;;;;;5063680;28;20102;-58
2022/02/20 09:04:46;;;;;;;4.13;0.60;;;21.00;44.60;;;;;;5064106;28;20064;-58
2022/02/20 09:07:13;;;;;;;2.78;0.52;;;21.00;44.50;;;;;;5066444;28;20040;-58
2022/02/20 09:09:40;;;;;;;1.63;0.20;;;21.10;44.60;;;;;;5046583;28;20068;-58
2022/02/20 09:12:08;;;;;;;2.28;0.10;;;21.10;44.60;;;;;;5062765;28;20041;-58
2022/02/20 09:14:35;;;;;;;2.25;0.20;;;21.10;44.60;;;;;;5063155;28;20044;-59
2022/02/20 09:17:04;;;;;;;3.70;0.28;;;21.20;44.60;;;;;;5065000;28;20135;-58
2022/02/20 09:19:31;;;;;;;1.65;0.32;;;21.20;44.60;;;;;;5062495;28;20032;-54
2022/02/20 09:21:59;;;;;;;4.72;0.40;;;21.20;44.50;;;;;;5064358;28;20517;-58
2022/02/20 09:24:26;;;;;;;1.33;0.30;;;21.20;44.50;;;;;;5067858;28;20588;-60
2022/02/20 09:26:54;;;;;;;1.73;0.30;;;21.20;44.50;;;;;;5066157;28;20036;-55
2022/02/20 09:29:21;;;;;;;3.10;0.30;;;21.20;44.60;;;;;;5064673;28;20139;-53
2022/02/20 09:31:48;;;;;;;0.73;0.35;;;21.20;44.60;;;;;;5062940;28;20041;-53
2022/02/20 09:34:15;;;;;;;1.98;0.40;;;21.30;44.70;;;;;;5064307;28;20040;-52
2022/02/20 09:36:42;;;;;;;2.33;0.32;;;21.30;44.70;;;;;;5063284;28;20080;-54
2022/02/20 09:39:11;;;;;;;0.80;0.32;;;21.30;44.70;;;;;;5047164;28;20580;-56
2022/02/20 09:41:38;;;;;;;4.32;1.55;;;21.30;44.70;;;;;;5063977;28;20046;-54
2022/02/20 09:44:06;;;;;;;3.17;0.45;;;21.30;44.70;;;;;;5062716;28;20050;-56
2022/02/20 09:46:33;;;;;;;0.95;0.20;;;21.40;44.80;;;;;;5067902;28;20060;-60
2022/02/20 09:49:01;;;;;;;5.07;0.40;;;21.40;44.80;;;;;;5066660;28;20043;-63
2022/02/20 09:51:30;;;;;;;5.90;0.25;;;21.40;44.90;;;;;;5044858;28;20041;-63
2022/02/20 09:53:58;;;;;;;3.67;0.30;;;21.40;45.00;;;;;;5067617;28;20119;-64
2022/02/20 09:56:27;;;;;;;6.90;0.50;;;21.40;45.10;;;;;;5067994;28;20040;-64
2022/02/20 09:58:54;;;;;;;2.78;0.13;;;21.40;45.10;;;;;;5065300;28;20056;-61
2022/02/20 10:01:21;;;;;;;7.07;0.32;;;21.50;45.20;;;;;;5067561;28;20496;-63
2022/02/20 10:03:49;;;;;;;3.75;0.17;;;21.50;45.10;;;;;;5067954;28;20044;-62
2022/02/20 10:06:20;;;;;;;4.10;0.80;;;21.50;45.20;;;;;;5068073;28;20036;-62
2022/02/20 10:08:49;;;;;;;9.50;0.95;;;21.50;45.20;;;;;;5067449;28;20071;-62
2022/02/20 10:11:20;;;;;;;32.35;1.58;;;21.50;47.10;;;;;;5067464;28;20087;-61
2022/02/20 10:13:51;;;;;;;10.73;0.95;;;21.60;48.50;;;;;;5067243;28;20094;-60
2022/02/20 10:16:24;;;;;;;8.70;1.25;;;21.60;49.30;;;;;;5067656;28;20045;-60
2022/02/20 10:19:01;;;;;;;6.72;0.82;;;21.60;49.30;;;;;;5067431;28;20046;-61
2022/02/20 10:21:47;;;;;;;4.78;1.65;;;21.60;49.40;;;;;;5065245;28;20528;-61
2022/02/20 10:24:33;;;;;;;10.27;1.58;;;21.70;49.60;;;;;;5068868;28;20487;-61
2022/02/20 10:27:20;;;;;;;5.80;1.00;;;21.70;49.80;;;;;;4967509;28;20059;-61
2022/02/20 10:30:10;;;;;;;8.15;0.68;;;21.70;50.00;;;;;;4968577;28;20197;-60
2022/02/20 10:32:37;;;;;;;2.97;1.40;;;21.80;50.00;;;;;;4967228;28;20126;-61
2022/02/20 10:35:07;;;;;;;3.70;0.28;;;21.80;50.00;;;;;;4967517;28;20038;-60
2022/02/20 10:37:34;;;;;;;3.60;0.75;;;21.80;49.90;;;;;;4968575;28;20074;-60
2022/02/20 10:40:01;;;;;;;5.40;0.52;;;21.90;49.80;;;;;;4967433;28;20065;-61
2022/02/20 10:42:28;;;;;;;0.45;0.10;;;21.90;49.70;;;;;;4968915;28;20051;-61
2022/02/20 10:45:00;;;;;;;6.80;1.05;;;21.90;49.60;;;;;;4965913;28;20175;-61
2022/02/20 10:47:30;;;;;;;3.33;0.45;;;21.90;49.40;;;;;;4968348;28;20131;-61
2022/02/20 10:50:15;;;;;;;4.55;0.15;;;21.90;49.20;;;;;;4968491;28;20146;-61
2022/02/20 10:52:42;;;;;;;1.15;0.30;;;21.90;49.60;;;;;;4968107;28;20149;-61
2022/02/20 10:55:12;;;;;;;2.25;0.10;;;21.90;48.90;;;;;;4967525;28;20047;-61
2022/02/20 10:57:40;;;;;;;4.28;0.40;;;21.90;48.80;;;;;;4967378;28;20051;-61
2022/02/20 11:00:12;;;;;;;2.10;0.43;;;21.90;48.70;;;;;;4966385;28;20047;-61
2022/02/20 11:02:39;;;;;;;5.85;0.80;;;22.00;48.60;;;;;;4968223;28;20041;-61
2022/02/20 11:05:07;;;;;;;1.05;0.10;;;21.90;48.50;;;;;;5018929;28;20080;-60
2022/02/20 11:07:37;;;;;;;2.85;0.30;;;22.00;48.40;;;;;;5067154;28;20761;-61
2022/02/20 11:10:05;;;;;;;4.82;0.32;;;22.00;48.40;;;;;;5066969;28;20052;-62
2022/02/20 11:12:35;;;;;;;6.97;0.43;;;22.00;48.30;;;;;;5068495;28;20044;-61
2022/02/20 11:15:04;;;;;;;3.95;0.10;;;22.00;48.20;;;;;;5066874;28;20032;-62
2022/02/20 11:17:33;;;;;;;2.30;0.20;;;22.00;48.00;;;;;;5066538;28;20480;-61
2022/02/20 11:20:02;;;;;;;3.75;0.50;;;22.10;47.90;;;;;;5066102;28;20041;-61
2022/02/20 11:22:35;;;;;;;1.38;0.40;;;22.10;47.80;;;;;;5066733;28;20425;-61
2022/02/20 11:25:03;;;;;;;1.90;0.20;;;22.20;47.70;;;;;;5066346;28;20044;-61
2022/02/20 11:27:31;;;;;;;2.70;1.08;;;22.20;47.50;;;;;;5068400;28;20501;-61
2022/02/20 11:29:58;;;;;;;2.28;0.20;;;22.30;47.40;;;;;;5066295;28;20143;-61
2022/02/20 11:32:25;;;;;;;2.53;0.20;;;22.30;47.10;;;;;;5065632;28;20056;-60
2022/02/20 11:34:53;;;;;;;2.38;0.70;;;22.30;46.90;;;;;;5066267;28;20040;-61
2022/02/20 11:37:20;;;;;;;1.70;0.30;;;22.30;46.80;;;;;;5066388;28;20039;-61
2022/02/20 11:40:01;;;;;;;3.97;0.47;;;22.30;46.70;;;;;;5066807;28;20047;-61
2022/02/20 11:42:28;;;;;;;3.08;0.20;;;22.40;46.50;;;;;;5066755;28;20127;-61
2022/02/20 11:45:02;;;;;;;1.88;0.28;;;22.40;46.50;;;;;;5064339;28;20655;-61
2022/02/20 11:47:43;;;;;;;2.78;0.35;;;22.40;46.40;;;;;;5060698;28;20409;-61
2022/02/20 11:50:34;;;;;;;3.92;0.30;;;22.40;46.20;;;;;;5065950;28;20032;-61
2022/02/20 11:53:03;;;;;;;1.00;0.30;;;22.40;46.00;;;;;;5065381;28;20063;-61
2022/02/20 11:55:33;;;;;;;1.67;0.30;;;22.50;46.00;;;;;;5065583;28;20032;-61
2022/02/20 11:58:23;;;;;;;0.57;0.40;;;22.50;45.90;;;;;;5066245;28;20133;-61
2022/02/20 12:01:11;;;;;;;0.68;0.10;;;22.50;45.70;;;;;;5065765;28;20398;-60
2022/02/20 12:04:04;;;;;;;2.75;0.40;;;22.50;45.70;;;;;;5067700;28;20047;-60
2022/02/20 12:06:38;;;;;;;2.40;0.50;;;22.50;45.60;;;;;;5066634;28;20141;-61
2022/02/20 12:09:25;;;;;;;1.73;0.30;;;22.50;45.50;;;;;;5065360;28;20048;-60
2022/02/20 12:11:52;;;;;;;2.90;0.52;;;22.50;45.40;;;;;;5065727;28;20047;-61
2022/02/20 12:14:22;;;;;;;2.00;0.22;;;22.50;45.30;;;;;;5065770;28;20041;-60
2022/02/20 12:16:55;;;;;;;3.72;0.75;;;22.50;45.20;;;;;;5065779;28;20055;-60
2022/02/20 12:19:25;;;;;;;1.83;0.82;;;22.50;45.10;;;;;;5066226;28;20044;-60
2022/02/20 12:22:25;;;;;;;3.22;0.70;;;22.50;45.60;;;;;;5066046;28;20125;-60
2022/02/20 12:25:18;;;;;;;4.00;0.45;;;22.60;45.00;;;;;;5053296;28;20421;-62
2022/02/20 12:27:46;;;;;;;2.00;0.47;;;22.50;45.60;;;;;;5066766;28;20072;-60
2022/02/20 12:30:15;;;;;;;2.28;0.50;;;22.50;45.50;;;;;;5066384;28;20047;-60
2022/02/20 12:32:43;;;;;;;1.58;0.73;;;22.50;44.90;;;;;;5065005;28;20055;-60
2022/02/20 12:35:17;;;;;;;3.28;1.02;;;22.50;44.90;;;;;;5059201;28;20068;-60
2022/02/20 12:37:48;;;;;;;2.85;0.20;;;22.50;44.90;;;;;;5059966;28;20538;-60
2022/02/20 12:40:18;;;;;;;2.10;0.20;;;22.40;44.80;;;;;;5060512;28;20067;-60
2022/02/20 12:42:55;;;;;;;1.52;0.13;;;22.40;44.80;;;;;;5063155;28;20505;-61
2022/02/20 12:45:24;;;;;;;2.03;0.45;;;22.40;44.80;;;;;;5066920;28;20048;-61
2022/02/20 12:47:53;;;;;;;5.35;0.35;;;22.40;44.80;;;;;;5064904;28;20043;-61
2022/02/20 12:50:24;;;;;;;4.90;0.60;;;22.40;44.70;;;;;;5062026;28;20114;-61
2022/02/20 12:52:53;;;;;;;2.67;1.00;;;22.30;44.70;;;;;;5062693;28;20033;-61
2022/02/20 12:55:22;;;;;;;1.73;0.65;;;22.30;44.70;;;;;;5065620;28;20448;-61
2022/02/20 12:57:51;;;;;;;1.17;0.57;;;22.30;44.60;;;;;;5066130;28;20048;-62
2022/02/20 13:00:20;;;;;;;3.10;0.20;;;22.30;44.60;;;;;;5066767;28;20055;-61
2022/02/20 13:02:49;;;;;;;3.03;0.45;;;22.30;44.60;;;;;;5065143;28;20130;-61
2022/02/20 13:05:22;;;;;;;3.53;0.40;;;22.30;44.60;;;;;;5064718;28;20040;-61